Miami, Florida
Traffic Map
Current Weather Conditions
Miami, Florida
Few Clouds
Few Clouds
23°
Feels Like: 23°
Wind Chill: 23° Ceiling: Unl
Heat Index: 23° Visibility: 10mi
Dew Point: Wind: 12mph
Humidity: 33% Direction: 340° (NNW)
Pressure: 30.15in Gusts: 0mph
Raw Report DataKMIA 271953Z 34010KT 10SM FEW040 FEW150 23/06 A3015 RMK AO2 SLP211 T02280056 VISNO RWY 9L
Traffic Incident Summary
Active as of:
Severity:
Category:
InformationThere was an issue retrieving the traffic information for this location. Please try a different location or try again shortly.
Advertisements
Track Severe Weather on mobile